Time;durP1;ratioP1;P1;durP2;ratioP2;P2;SDS_P1;SDS_P2;PMS_P1;PMS_P2;Temp;Humidity;BMP_temperature;BMP_pressure;BME280_temperature;BME280_humidity;BME280_pressure;Samples;Min_cycle;Max_cycle;Signal;HPM_P1;HPM_P2
2023/07/01 00:00:24;;;;;;;10.68;8.52;;;;;;;;;;5075264;28;20045;-81
2023/07/01 00:03:15;;;;;;;10.93;7.85;;;;;;;;;;5074990;28;20048;-80
2023/07/01 00:06:02;;;;;;;12.63;7.65;;;;;;;;;;5074444;28;20044;-80
2023/07/01 00:08:48;;;;;;;10.65;8.00;;;;;;;;;;5074877;28;20405;-80
2023/07/01 00:11:34;;;;;;;11.00;7.95;;;;;;;;;;5074885;28;20482;-80
2023/07/01 00:14:20;;;;;;;10.82;8.13;;;;;;;;;;5074983;28;20409;-80
2023/07/01 00:17:09;;;;;;;12.43;8.00;;;;;;;;;;5053018;28;20036;-80
2023/07/01 00:19:55;;;;;;;11.02;8.35;;;;;;;;;;5074479;28;20048;-80
2023/07/01 00:22:40;;;;;;;8.75;7.85;;;;;;;;;;5074797;28;20044;-80
2023/07/01 00:25:26;;;;;;;12.65;8.38;;;;;;;;;;5074410;28;20036;-80
2023/07/01 00:28:11;;;;;;;9.93;7.82;;;;;;;;;;5081241;28;20040;-80
2023/07/01 00:30:57;;;;;;;9.48;8.50;;;;;;;;;;5074672;28;20040;-80
2023/07/01 00:33:43;;;;;;;12.38;8.27;;;;;;;;;;5066050;28;20045;-80
2023/07/01 00:36:28;;;;;;;10.32;8.77;;;;;;;;;;5066344;28;20048;-80
2023/07/01 00:39:14;;;;;;;10.88;8.57;;;;;;;;;;5066093;28;20040;-79
2023/07/01 00:41:59;;;;;;;12.25;8.48;;;;;;;;;;5074233;28;20041;-79
2023/07/01 00:44:47;;;;;;;11.65;8.95;;;;;;;;;;5065856;28;20401;-80
2023/07/01 00:47:33;;;;;;;11.75;8.00;;;;;;;;;;5073939;28;20036;-81
2023/07/01 00:50:20;;;;;;;9.10;7.45;;;;;;;;;;5052309;28;20044;-80
2023/07/01 00:53:08;;;;;;;9.77;8.23;;;;;;;;;;5074221;28;20040;-80
2023/07/01 00:55:53;;;;;;;10.20;8.13;;;;;;;;;;5066015;28;20036;-81
2023/07/01 00:58:39;;;;;;;11.23;8.20;;;;;;;;;;5066094;28;20048;-80
2023/07/01 01:01:34;;;;;;;10.55;8.15;;;;;;;;;;5074029;28;20045;-80
2023/07/01 01:04:23;;;;;;;12.75;8.73;;;;;;;;;;5065891;28;20045;-80
2023/07/01 01:07:16;;;;;;;11.68;8.55;;;;;;;;;;5073226;28;20052;-80
2023/07/01 01:10:09;;;;;;;10.70;8.07;;;;;;;;;;5074024;28;20041;-80
2023/07/01 01:12:57;;;;;;;10.75;8.52;;;;;;;;;;5065491;28;20489;-80
2023/07/01 01:15:42;;;;;;;10.20;9.10;;;;;;;;;;5065224;28;20040;-80
2023/07/01 01:18:31;;;;;;;11.25;8.77;;;;;;;;;;5073878;28;20040;-80
2023/07/01 01:21:20;;;;;;;10.55;8.50;;;;;;;;;;5073695;28;20049;-80
2023/07/01 01:24:08;;;;;;;12.63;8.82;;;;;;;;;;5073684;28;20032;-80
2023/07/01 01:26:58;;;;;;;11.50;8.25;;;;;;;;;;5065305;28;20044;-80
2023/07/01 01:29:43;;;;;;;8.98;8.00;;;;;;;;;;5073417;28;20048;-81
2023/07/01 01:32:29;;;;;;;10.98;8.27;;;;;;;;;;5073670;28;20048;-80
2023/07/01 01:35:14;;;;;;;10.02;8.80;;;;;;;;;;5073562;28;20040;-80
2023/07/01 01:38:07;;;;;;;8.93;7.68;;;;;;;;;;5073785;28;20481;-79
2023/07/01 01:40:58;;;;;;;13.95;8.50;;;;;;;;;;5065284;28;20040;-80
2023/07/01 01:43:44;;;;;;;12.18;8.57;;;;;;;;;;5065328;28;20049;-80
2023/07/01 01:46:31;;;;;;;11.55;8.60;;;;;;;;;;5080032;28;20054;-79
2023/07/01 01:49:19;;;;;;;12.23;7.95;;;;;;;;;;5064972;28;20052;-80
2023/07/01 01:52:06;;;;;;;11.20;8.65;;;;;;;;;;5073736;28;20044;-79
2023/07/01 01:54:53;;;;;;;11.93;8.65;;;;;;;;;;5063066;28;20040;-79
2023/07/01 01:57:39;;;;;;;12.05;8.88;;;;;;;;;;5062817;28;20044;-79
2023/07/01 02:00:25;;;;;;;14.48;9.32;;;;;;;;;;5064350;28;20052;-79
2023/07/01 02:03:10;;;;;;;11.88;9.48;;;;;;;;;;5072331;28;20389;-78
2023/07/01 02:05:56;;;;;;;11.75;9.32;;;;;;;;;;5071417;28;20044;-79
2023/07/01 02:08:41;;;;;;;12.00;9.07;;;;;;;;;;5072616;28;20037;-79
2023/07/01 02:11:27;;;;;;;15.25;9.48;;;;;;;;;;5073255;28;20421;-80
2023/07/01 02:14:13;;;;;;;15.68;9.80;;;;;;;;;;5073213;28;20045;-81
2023/07/01 02:16:58;;;;;;;15.20;9.25;;;;;;;;;;5065053;28;20057;-80
2023/07/01 02:19:44;;;;;;;10.75;9.35;;;;;;;;;;5073515;28;20377;-80
2023/07/01 02:22:30;;;;;;;16.98;9.15;;;;;;;;;;5073294;28;20040;-80
2023/07/01 02:25:15;;;;;;;12.95;9.05;;;;;;;;;;5080036;28;20416;-80
2023/07/01 02:28:01;;;;;;;11.90;9.18;;;;;;;;;;5073512;28;20045;-79
2023/07/01 02:30:46;;;;;;;12.43;9.23;;;;;;;;;;5076808;28;20037;-79
2023/07/01 02:33:32;;;;;;;11.38;9.68;;;;;;;;;;5077184;28;20045;-80
2023/07/01 02:36:17;;;;;;;12.95;9.48;;;;;;;;;;5082671;28;20049;-79
2023/07/01 02:39:03;;;;;;;15.45;9.25;;;;;;;;;;5075396;28;20052;-81
2023/07/01 02:41:48;;;;;;;10.35;8.57;;;;;;;;;;5075275;28;20489;-81
2023/07/01 02:44:34;;;;;;;13.95;8.88;;;;;;;;;;5079004;28;20052;-79
2023/07/01 02:47:20;;;;;;;10.63;9.02;;;;;;;;;;5070373;28;20045;-79
2023/07/01 02:50:06;;;;;;;13.38;8.95;;;;;;;;;;5078957;28;20040;-79
2023/07/01 02:52:52;;;;;;;13.35;8.77;;;;;;;;;;5068160;28;20044;-80
2023/07/01 02:55:38;;;;;;;12.73;9.30;;;;;;;;;;5067947;28;20477;-80
2023/07/01 02:58:23;;;;;;;9.85;8.40;;;;;;;;;;5076287;28;20044;-80
2023/07/01 03:01:09;;;;;;;14.90;8.55;;;;;;;;;;5076402;28;20049;-81
2023/07/01 03:03:54;;;;;;;13.77;8.68;;;;;;;;;;5053634;28;20477;-80
2023/07/01 03:06:40;;;;;;;24.20;10.52;;;;;;;;;;5075776;28;20412;-80
2023/07/01 03:09:27;;;;;;;11.10;9.18;;;;;;;;;;5067737;28;20048;-80
2023/07/01 03:12:13;;;;;;;14.65;8.93;;;;;;;;;;5068005;28;20044;-80
2023/07/01 03:14:58;;;;;;;19.25;9.10;;;;;;;;;;5067535;28;20045;-81
2023/07/01 03:17:43;;;;;;;13.43;9.25;;;;;;;;;;5076057;28;20044;-81
2023/07/01 03:20:28;;;;;;;16.35;9.20;;;;;;;;;;5075655;28;20048;-81
2023/07/01 03:23:14;;;;;;;15.38;9.07;;;;;;;;;;5075904;28;20048;-81
2023/07/01 03:26:00;;;;;;;17.45;9.02;;;;;;;;;;5067438;28;20044;-81
2023/07/01 03:28:46;;;;;;;12.23;8.80;;;;;;;;;;5067023;28;20041;-81
2023/07/01 03:31:32;;;;;;;11.90;8.52;;;;;;;;;;5067331;28;20044;-81
2023/07/01 03:34:18;;;;;;;10.85;8.52;;;;;;;;;;5075528;28;20045;-81
2023/07/01 03:37:03;;;;;;;11.95;8.75;;;;;;;;;;5075497;28;20048;-81
2023/07/01 03:39:49;;;;;;;11.52;9.48;;;;;;;;;;5075508;28;20048;-81
2023/07/01 03:42:35;;;;;;;13.90;9.43;;;;;;;;;;5075137;28;20041;-81
2023/07/01 03:45:20;;;;;;;13.93;9.88;;;;;;;;;;5060706;28;20049;-81
2023/07/01 03:48:05;;;;;;;13.65;9.50;;;;;;;;;;5081033;28;20036;-80
2023/07/01 03:50:51;;;;;;;13.88;9.35;;;;;;;;;;5075267;28;20477;-80
2023/07/01 03:53:37;;;;;;;14.95;9.63;;;;;;;;;;5075013;28;20040;-80
2023/07/01 03:56:21;;;;;;;12.50;9.18;;;;;;;;;;5074952;28;20037;-80
2023/07/01 03:59:07;;;;;;;15.68;9.40;;;;;;;;;;5075129;28;20040;-80
2023/07/01 04:01:53;;;;;;;12.90;9.10;;;;;;;;;;5075145;28;20040;-80
2023/07/01 04:04:38;;;;;;;13.25;9.20;;;;;;;;;;5075321;28;20045;-80
2023/07/01 04:07:23;;;;;;;14.85;9.82;;;;;;;;;;5074557;28;20048;-79
2023/07/01 04:10:10;;;;;;;16.42;10.10;;;;;;;;;;5074861;28;20052;-80
2023/07/01 04:12:57;;;;;;;13.77;10.32;;;;;;;;;;5074711;28;20040;-80
2023/07/01 04:15:43;;;;;;;15.25;10.40;;;;;;;;;;5074652;28;20041;-80
2023/07/01 04:18:28;;;;;;;15.15;10.20;;;;;;;;;;5074595;28;20048;-80
2023/07/01 04:21:13;;;;;;;15.25;9.85;;;;;;;;;;5073542;28;20303;-81
2023/07/01 04:24:02;;;;;;;17.15;9.63;;;;;;;;;;5072629;28;20493;-80
2023/07/01 04:26:47;;;;;;;14.30;10.30;;;;;;;;;;5080445;28;20049;-80
2023/07/01 04:29:33;;;;;;;19.98;11.38;;;;;;;;;;5073439;28;20037;-80
2023/07/01 04:32:19;;;;;;;15.55;10.15;;;;;;;;;;5074339;28;20052;-80
2023/07/01 04:35:05;;;;;;;16.02;10.35;;;;;;;;;;5074354;28;20044;-80
2023/07/01 04:37:50;;;;;;;14.90;10.05;;;;;;;;;;5074609;28;20045;-80
2023/07/01 04:40:35;;;;;;;17.52;10.82;;;;;;;;;;5074857;28;20044;-80
2023/07/01 04:43:20;;;;;;;13.10;9.43;;;;;;;;;;5074645;28;20044;-78
2023/07/01 04:46:06;;;;;;;14.25;9.60;;;;;;;;;;5080537;28;20048;-79
2023/07/01 04:48:52;;;;;;;13.73;9.68;;;;;;;;;;5074203;28;20385;-78
2023/07/01 04:51:37;;;;;;;11.07;8.85;;;;;;;;;;5073978;28;20048;-77
2023/07/01 04:54:23;;;;;;;14.70;10.13;;;;;;;;;;5074177;28;20041;-78
2023/07/01 04:57:08;;;;;;;17.42;11.77;;;;;;;;;;5080731;28;20049;-78
2023/07/01 04:59:54;;;;;;;16.10;10.32;;;;;;;;;;5074184;28;20044;-77
2023/07/01 05:02:40;;;;;;;16.73;10.45;;;;;;;;;;5074073;28;20044;-77
2023/07/01 05:05:25;;;;;;;16.88;10.07;;;;;;;;;;5072663;28;20041;-77
2023/07/01 05:08:10;;;;;;;15.40;9.80;;;;;;;;;;5065238;28;20037;-78
2023/07/01 05:10:55;;;;;;;17.95;9.38;;;;;;;;;;5073096;28;20049;-78
2023/07/01 05:13:41;;;;;;;14.95;8.85;;;;;;;;;;5080409;28;20052;-78
2023/07/01 05:16:26;;;;;;;13.45;8.32;;;;;;;;;;5074242;28;20044;-78
2023/07/01 05:19:12;;;;;;;11.95;8.80;;;;;;;;;;5073782;28;20040;-78
2023/07/01 05:21:57;;;;;;;13.43;8.43;;;;;;;;;;5073946;28;20040;-80
2023/07/01 05:24:43;;;;;;;14.63;7.97;;;;;;;;;;5074015;28;20055;-79
2023/07/01 05:27:29;;;;;;;13.90;7.60;;;;;;;;;;5073510;28;20549;-79
2023/07/01 05:30:16;;;;;;;12.43;7.18;;;;;;;;;;5074091;28;20044;-79
2023/07/01 05:33:01;;;;;;;15.70;7.70;;;;;;;;;;5073501;28;20053;-78
2023/07/01 05:35:46;;;;;;;9.68;7.15;;;;;;;;;;5073651;28;20045;-79
2023/07/01 05:38:32;;;;;;;10.25;7.20;;;;;;;;;;5073619;28;20052;-78
2023/07/01 05:41:17;;;;;;;11.02;7.18;;;;;;;;;;5073463;28;20482;-78
2023/07/01 05:44:03;;;;;;;18.13;7.05;;;;;;;;;;5073442;28;20044;-79
2023/07/01 05:46:49;;;;;;;9.73;6.63;;;;;;;;;;5073272;28;20040;-78
2023/07/01 05:49:34;;;;;;;12.57;7.55;;;;;;;;;;5073419;28;20037;-77
2023/07/01 05:52:21;;;;;;;17.95;7.47;;;;;;;;;;5073480;28;20390;-78
2023/07/01 05:55:06;;;;;;;12.75;7.28;;;;;;;;;;5073347;28;20036;-79
2023/07/01 05:57:52;;;;;;;10.93;7.22;;;;;;;;;;5073251;28;20040;-81
2023/07/01 06:00:38;;;;;;;17.42;7.57;;;;;;;;;;5079845;28;20037;-79
2023/07/01 06:03:23;;;;;;;11.63;6.88;;;;;;;;;;5079944;28;20040;-81
2023/07/01 06:06:09;;;;;;;15.90;7.15;;;;;;;;;;5073339;28;20045;-79
2023/07/01 06:08:54;;;;;;;22.20;7.18;;;;;;;;;;5072940;28;20405;-79
2023/07/01 06:11:40;;;;;;;15.82;7.20;;;;;;;;;;5058096;28;20485;-79
2023/07/01 06:14:26;;;;;;;12.73;7.28;;;;;;;;;;5072994;28;20044;-79
2023/07/01 06:17:11;;;;;;;13.43;8.07;;;;;;;;;;5074788;28;20044;-79
2023/07/01 06:19:57;;;;;;;12.32;8.68;;;;;;;;;;5077057;28;20045;-79
2023/07/01 06:22:42;;;;;;;15.55;7.63;;;;;;;;;;5076517;28;20040;-78
2023/07/01 06:25:28;;;;;;;12.23;6.90;;;;;;;;;;5076641;28;20049;-79
2023/07/01 06:28:12;;;;;;;13.20;7.85;;;;;;;;;;5076516;28;20037;-79
2023/07/01 06:30:58;;;;;;;10.00;6.45;;;;;;;;;;5076419;28;20040;-80
2023/07/01 06:33:45;;;;;;;15.85;5.75;;;;;;;;;;5076736;28;20033;-79
2023/07/01 06:36:31;;;;;;;16.15;6.78;;;;;;;;;;5083248;28;20041;-79
2023/07/01 06:39:16;;;;;;;12.57;5.78;;;;;;;;;;5083273;28;20420;-79
2023/07/01 06:42:02;;;;;;;11.32;6.32;;;;;;;;;;5076476;28;20053;-79
2023/07/01 06:44:47;;;;;;;12.45;5.80;;;;;;;;;;5082896;28;20045;-78
2023/07/01 06:47:32;;;;;;;10.85;6.88;;;;;;;;;;5075815;28;20041;-81
2023/07/01 06:50:18;;;;;;;12.52;6.97;;;;;;;;;;5083060;28;20044;-82
2023/07/01 06:53:04;;;;;;;13.48;8.05;;;;;;;;;;5075051;28;20037;-81
2023/07/01 06:55:50;;;;;;;12.43;7.85;;;;;;;;;;5076497;28;20041;-83
2023/07/01 06:58:36;;;;;;;13.70;7.93;;;;;;;;;;5079453;28;20037;-82
2023/07/01 07:01:21;;;;;;;14.63;7.82;;;;;;;;;;5076445;28;20393;-81
2023/07/01 07:04:07;;;;;;;16.55;7.50;;;;;;;;;;5075567;28;20036;-81
2023/07/01 07:06:53;;;;;;;11.60;6.78;;;;;;;;;;5075847;28;20485;-81
2023/07/01 07:09:38;;;;;;;11.55;7.07;;;;;;;;;;5060484;28;20049;-84
2023/07/01 07:12:24;;;;;;;12.10;6.75;;;;;;;;;;5075559;28;20513;-82
2023/07/01 07:15:10;;;;;;;13.57;6.18;;;;;;;;;;5053314;28;20044;-81
2023/07/01 07:17:55;;;;;;;11.15;5.80;;;;;;;;;;5075596;28;20087;-81
2023/07/01 07:20:40;;;;;;;9.13;5.60;;;;;;;;;;5067515;28;20040;-81
2023/07/01 07:23:26;;;;;;;6.60;5.03;;;;;;;;;;5075518;28;20044;-81
2023/07/01 07:26:13;;;;;;;10.20;5.13;;;;;;;;;;5075320;28;20049;-82
2023/07/01 07:28:58;;;;;;;6.88;4.75;;;;;;;;;;5074943;28;20044;-82
2023/07/01 07:31:44;;;;;;;10.13;5.15;;;;;;;;;;5075104;28;20037;-82
2023/07/01 07:34:29;;;;;;;8.70;4.82;;;;;;;;;;5075300;28;20048;-81
2023/07/01 07:37:16;;;;;;;11.90;4.85;;;;;;;;;;5075549;28;20048;-85
2023/07/01 07:40:07;;;;;;;9.13;4.80;;;;;;;;;;5060238;28;20389;-85
2023/07/01 07:42:55;;;;;;;10.18;4.85;;;;;;;;;;5059626;28;20489;-85
2023/07/01 07:45:41;;;;;;;8.95;4.65;;;;;;;;;;5060014;28;20048;-85
2023/07/01 07:48:27;;;;;;;7.78;4.38;;;;;;;;;;5059181;28;20044;-85
2023/07/01 07:51:12;;;;;;;8.48;5.10;;;;;;;;;;5060289;28;20053;-86
2023/07/01 07:53:58;;;;;;;7.97;4.82;;;;;;;;;;5075978;28;20404;-84
2023/07/01 07:56:44;;;;;;;6.72;4.85;;;;;;;;;;5075472;28;20037;-88
2023/07/01 07:59:29;;;;;;;9.73;4.43;;;;;;;;;;5060789;28;20041;-81
2023/07/01 08:02:14;;;;;;;7.25;4.35;;;;;;;;;;5075536;28;20045;-87
2023/07/01 08:05:00;;;;;;;8.20;4.70;;;;;;;;;;5072839;28;20064;-88
2023/07/01 08:07:46;;;;;;;8.35;4.40;;;;;;;;;;5063833;28;20040;-86
2023/07/01 08:10:32;;;;;;;7.20;4.35;;;;;;;;;;5074080;28;20048;-88
2023/07/01 08:13:18;;;;;;;9.07;4.82;;;;;;;;;;5071425;28;20048;-87
2023/07/01 08:16:04;;;;;;;9.07;5.03;;;;;;;;;;5069060;28;20040;-88
2023/07/01 08:18:50;;;;;;;16.45;4.65;;;;;;;;;;5079088;28;20044;-88
2023/07/01 08:21:37;;;;;;;9.10;4.93;;;;;;;;;;5078535;28;20049;-88
2023/07/01 08:24:23;;;;;;;7.20;4.10;;;;;;;;;;5072800;28;20040;-88
2023/07/01 08:27:09;;;;;;;9.82;4.38;;;;;;;;;;5069440;28;20040;-88
2023/07/01 08:29:54;;;;;;;5.72;4.00;;;;;;;;;;5075334;28;20053;-89
2023/07/01 08:32:40;;;;;;;6.55;4.13;;;;;;;;;;5073000;28;20052;-87
2023/07/01 08:35:26;;;;;;;9.20;4.78;;;;;;;;;;5061787;28;20048;-87
2023/07/01 08:38:12;;;;;;;5.93;4.30;;;;;;;;;;5077682;28;20056;-88
2023/07/01 08:41:03;;;;;;;7.18;3.80;;;;;;;;;;5077359;28;20489;-87
2023/07/01 08:43:52;;;;;;;12.25;4.13;;;;;;;;;;5075290;28;20044;-87
2023/07/01 08:46:39;;;;;;;9.70;4.18;;;;;;;;;;5068053;28;20394;-89
2023/07/01 08:49:32;;;;;;;5.97;3.90;;;;;;;;;;5074586;28;20032;-89
2023/07/01 08:52:19;;;;;;;6.55;4.22;;;;;;;;;;5059038;28;20040;-89
2023/07/01 08:55:05;;;;;;;6.57;4.10;;;;;;;;;;5052047;28;20044;-87
2023/07/01 08:57:52;;;;;;;10.00;4.20;;;;;;;;;;5059931;28;20385;-83
2023/07/01 09:00:38;;;;;;;9.75;4.63;;;;;;;;;;5081647;28;20032;-81
2023/07/01 09:03:26;;;;;;;8.82;4.43;;;;;;;;;;5073759;28;20040;-80
2023/07/01 09:06:12;;;;;;;10.52;5.18;;;;;;;;;;5073267;28;20044;-81
2023/07/01 09:08:58;;;;;;;7.35;4.18;;;;;;;;;;5073378;28;20049;-81
2023/07/01 09:11:44;;;;;;;6.25;3.85;;;;;;;;;;5073560;28;20049;-81
2023/07/01 09:15:02;;;;;;;10.20;4.05;;;;;;;;;;5080348;28;20040;-88
2023/07/01 09:17:54;;;;;;;8.55;4.55;;;;;;;;;;5065264;28;20057;-86
2023/07/01 09:20:40;;;;;;;11.75;5.47;;;;;;;;;;5075556;28;20032;-87
2023/07/01 09:23:26;;;;;;;10.57;4.45;;;;;;;;;;5074151;28;20052;-86
2023/07/01 09:26:19;;;;;;;6.78;4.47;;;;;;;;;;5074471;28;20044;-85
2023/07/01 09:29:10;;;;;;;8.50;4.55;;;;;;;;;;5058227;28;20033;-85
2023/07/01 09:31:58;;;;;;;8.30;5.50;;;;;;;;;;5073757;28;20044;-88
2023/07/01 09:34:59;;;;;;;9.90;4.60;;;;;;;;;;5073444;28;20040;-81
2023/07/01 09:37:45;;;;;;;8.85;4.50;;;;;;;;;;5073726;28;20052;-83
2023/07/01 09:40:30;;;;;;;7.28;4.70;;;;;;;;;;5073583;28;20048;-82
2023/07/01 09:43:19;;;;;;;7.55;4.25;;;;;;;;;;5073279;28;20044;-84
2023/07/01 09:46:04;;;;;;;6.90;4.35;;;;;;;;;;5065390;28;20053;-85
2023/07/01 09:48:53;;;;;;;7.88;4.40;;;;;;;;;;5073104;28;20037;-86
2023/07/01 09:51:50;;;;;;;5.88;4.22;;;;;;;;;;5074881;28;20052;-85
2023/07/01 09:54:36;;;;;;;7.70;4.22;;;;;;;;;;5062162;28;20045;-86
2023/07/01 09:57:23;;;;;;;9.85;4.45;;;;;;;;;;5061946;28;20040;-85
2023/07/01 10:00:10;;;;;;;7.97;3.72;;;;;;;;;;5077546;28;20473;-87
2023/07/01 10:02:56;;;;;;;4.97;3.83;;;;;;;;;;5078332;28;20389;-87
2023/07/01 10:06:01;;;;;;;7.93;3.95;;;;;;;;;;5062878;28;20049;-89
2023/07/01 10:09:03;;;;;;;5.10;3.83;;;;;;;;;;5068970;28;20045;-88
2023/07/01 10:12:06;;;;;;;9.88;5.95;;;;;;;;;;5060441;28;20382;-88
2023/07/01 10:14:52;;;;;;;53.92;21.77;;;;;;;;;;5069756;28;20048;-86
2023/07/01 10:17:45;;;;;;;13.18;3.72;;;;;;;;;;5076951;28;20044;-81
2023/07/01 10:20:33;;;;;;;7.28;3.70;;;;;;;;;;5076976;28;20409;-82
2023/07/01 10:23:21;;;;;;;4.25;3.67;;;;;;;;;;5076773;28;20485;-83
2023/07/01 10:26:31;;;;;;;6.78;3.78;;;;;;;;;;5077372;28;20048;-85
2023/07/01 10:29:30;;;;;;;7.07;3.67;;;;;;;;;;5069065;28;20037;-84
2023/07/01 10:32:16;;;;;;;6.75;3.92;;;;;;;;;;5076655;28;20048;-83
2023/07/01 10:35:04;;;;;;;6.68;4.40;;;;;;;;;;5061875;28;20045;-84
2023/07/01 10:38:21;;;;;;;6.13;4.30;;;;;;;;;;5076433;28;20044;-85
2023/07/01 10:41:06;;;;;;;6.10;4.47;;;;;;;;;;5083449;28;20482;-83
2023/07/01 10:44:20;;;;;;;13.15;4.15;;;;;;;;;;5076213;28;20041;-84
2023/07/01 10:47:16;;;;;;;5.47;3.88;;;;;;;;;;5076456;28;20041;-85
2023/07/01 10:50:04;;;;;;;6.60;3.88;;;;;;;;;;5076345;28;20041;-86
2023/07/01 10:52:56;;;;;;;7.18;4.07;;;;;;;;;;5076192;28;20048;-81
2023/07/01 10:55:48;;;;;;;7.50;4.22;;;;;;;;;;5076615;28;20385;-86
2023/07/01 10:58:33;;;;;;;7.15;4.00;;;;;;;;;;5075873;28;20049;-84
2023/07/01 11:01:41;;;;;;;5.63;3.72;;;;;;;;;;5068286;28;20044;-84
2023/07/01 11:04:54;;;;;;;6.25;3.95;;;;;;;;;;5079350;28;20049;-85
2023/07/01 11:07:41;;;;;;;9.05;4.03;;;;;;;;;;5056436;28;20053;-85
2023/07/01 11:10:28;;;;;;;6.43;3.72;;;;;;;;;;5041039;28;20490;-85
2023/07/01 11:13:17;;;;;;;5.18;3.58;;;;;;;;;;5056582;28;20075;-84
2023/07/01 11:16:06;;;;;;;13.38;4.43;;;;;;;;;;5055861;28;20053;-83
2023/07/01 11:18:52;;;;;;;6.20;3.38;;;;;;;;;;5055840;28;20060;-84
2023/07/01 11:21:37;;;;;;;8.63;3.80;;;;;;;;;;5056339;28;20045;-86
2023/07/01 11:24:26;;;;;;;11.30;3.65;;;;;;;;;;5055652;28;20045;-83
2023/07/01 11:27:11;;;;;;;6.50;4.25;;;;;;;;;;5055543;28;20045;-84
2023/07/01 11:29:56;;;;;;;9.25;4.30;;;;;;;;;;5047850;28;20494;-84
2023/07/01 11:32:42;;;;;;;4.97;3.70;;;;;;;;;;5047500;28;20049;-83
2023/07/01 11:35:47;;;;;;;8.75;4.00;;;;;;;;;;5055328;28;20037;-86
2023/07/01 11:38:33;;;;;;;;;;;;;;;;;;5055670;28;20045;-82
2023/07/01 11:41:23;;;;;;;6.38;3.80;;;;;;;;;;5055497;28;19916;-86
2023/07/01 11:44:15;;;;;;;7.72;3.65;;;;;;;;;;5055430;28;20386;-84
2023/07/01 11:47:01;;;;;;;7.07;4.03;;;;;;;;;;5055680;28;20041;-86
2023/07/01 11:49:48;;;;;;;5.13;3.65;;;;;;;;;;5048226;28;20045;-83
2023/07/01 11:52:34;;;;;;;9.75;4.30;;;;;;;;;;5040468;28;20049;-82
2023/07/01 11:55:39;;;;;;;13.98;7.80;;;;;;;;;;5055183;28;20402;-84
2023/07/01 11:58:30;;;;;;;16.67;7.93;;;;;;;;;;5062359;28;20049;-82
2023/07/01 12:01:26;;;;;;;8.23;4.72;;;;;;;;;;5061882;28;20394;-83
2023/07/01 12:04:16;;;;;;;6.95;3.90;;;;;;;;;;5055418;28;20057;-85
2023/07/01 12:07:06;;;;;;;8.88;4.25;;;;;;;;;;5040771;28;20405;-87
2023/07/01 12:09:51;;;;;;;9.85;7.03;;;;;;;;;;5040050;28;20041;-85
2023/07/01 12:12:37;;;;;;;22.88;11.93;;;;;;;;;;5046678;28;20049;-86
2023/07/01 12:15:23;;;;;;;9.05;5.05;;;;;;;;;;5046414;28;20041;-88
2023/07/01 12:18:27;;;;;;;8.70;5.18;;;;;;;;;;5040082;28;20037;-87
2023/07/01 12:21:16;;;;;;;31.67;4.60;;;;;;;;;;5055178;28;20390;-81
2023/07/01 12:24:02;;;;;;;13.52;3.45;;;;;;;;;;5054872;28;20057;-80
2023/07/01 12:26:50;;;;;;;14.82;2.88;;;;;;;;;;5054812;28;20037;-81
2023/07/01 12:29:35;;;;;;;9.32;3.72;;;;;;;;;;5054500;28;20041;-81
2023/07/01 12:32:21;;;;;;;11.02;4.45;;;;;;;;;;5054285;28;20143;-81
2023/07/01 12:35:07;;;;;;;9.63;4.68;;;;;;;;;;5054798;28;20048;-80
2023/07/01 12:37:54;;;;;;;9.43;3.40;;;;;;;;;;5054247;28;20053;-82
2023/07/01 12:40:39;;;;;;;16.77;6.35;;;;;;;;;;5039440;28;20045;-80
2023/07/01 12:43:27;;;;;;;10.88;3.30;;;;;;;;;;5055066;28;20057;-80
2023/07/01 12:46:11;;;;;;;8.75;3.80;;;;;;;;;;5046904;28;20053;-85
2023/07/01 12:49:00;;;;;;;11.30;4.63;;;;;;;;;;5047044;28;20041;-81
2023/07/01 12:51:47;;;;;;;11.85;4.00;;;;;;;;;;5054506;28;20041;-83
2023/07/01 12:54:34;;;;;;;10.13;4.40;;;;;;;;;;5053938;28;20041;-82
2023/07/01 12:57:20;;;;;;;11.75;4.93;;;;;;;;;;5053840;28;20040;-82
2023/07/01 13:00:07;;;;;;;9.93;3.60;;;;;;;;;;5053750;28;20044;-82
2023/07/01 13:02:52;;;;;;;8.98;4.03;;;;;;;;;;5053472;28;20048;-82
2023/07/01 13:05:37;;;;;;;9.38;3.78;;;;;;;;;;5058278;28;20041;-82
2023/07/01 13:08:22;;;;;;;8.30;3.92;;;;;;;;;;5074000;28;20040;-83
2023/07/01 13:11:08;;;;;;;7.60;3.88;;;;;;;;;;5073509;28;20045;-83
2023/07/01 13:13:53;;;;;;;8.07;4.38;;;;;;;;;;5073776;28;20037;-82
2023/07/01 13:16:42;;;;;;;12.68;4.43;;;;;;;;;;5073728;28;20041;-81
2023/07/01 13:19:28;;;;;;;10.23;5.00;;;;;;;;;;5074545;28;20041;-83
2023/07/01 13:22:14;;;;;;;8.65;3.67;;;;;;;;;;5075073;28;20036;-82
2023/07/01 13:25:02;;;;;;;13.43;4.20;;;;;;;;;;5073957;28;20041;-82
2023/07/01 13:27:46;;;;;;;8.95;4.53;;;;;;;;;;5073205;28;20049;-83
2023/07/01 13:30:49;;;;;;;9.88;4.22;;;;;;;;;;5073689;28;20056;-81
2023/07/01 13:33:43;;;;;;;8.13;3.70;;;;;;;;;;5073643;28;20052;-84
2023/07/01 13:36:39;;;;;;;10.88;3.67;;;;;;;;;;5074008;28;20037;-83
2023/07/01 13:39:40;;;;;;;7.35;4.55;;;;;;;;;;5073567;28;20044;-82
2023/07/01 13:42:26;;;;;;;9.05;4.53;;;;;;;;;;5073378;28;20045;-81
2023/07/01 13:45:24;;;;;;;7.85;4.20;;;;;;;;;;5073359;28;20414;-82
2023/07/01 13:48:35;;;;;;;9.52;3.92;;;;;;;;;;5073273;28;20044;-82
2023/07/01 13:51:20;;;;;;;7.82;4.32;;;;;;;;;;5052087;28;20405;-82
2023/07/01 13:54:10;;;;;;;7.47;3.92;;;;;;;;;;5073694;28;20040;-82
2023/07/01 13:56:58;;;;;;;7.38;3.67;;;;;;;;;;5080672;28;20040;-82
2023/07/01 13:59:43;;;;;;;7.07;3.97;;;;;;;;;;5073312;28;20052;-82
2023/07/01 14:02:28;;;;;;;19.10;4.90;;;;;;;;;;5073163;28;20045;-82
2023/07/01 14:05:13;;;;;;;6.63;3.58;;;;;;;;;;5057986;28;20040;-82
2023/07/01 14:08:00;;;;;;;8.93;4.50;;;;;;;;;;5072823;28;20033;-82
2023/07/01 14:10:45;;;;;;;9.73;4.00;;;;;;;;;;5073104;28;20049;-82
2023/07/01 14:13:31;;;;;;;11.25;4.28;;;;;;;;;;5073011;28;20417;-82
2023/07/01 14:16:21;;;;;;;6.15;3.63;;;;;;;;;;5073176;28;20036;-82
2023/07/01 14:19:07;;;;;;;8.15;4.05;;;;;;;;;;5073218;28;20049;-82
2023/07/01 14:21:54;;;;;;;8.98;3.92;;;;;;;;;;5073575;28;20049;-82
2023/07/01 14:24:39;;;;;;;7.78;3.78;;;;;;;;;;5073454;28;20037;-82
2023/07/01 14:27:27;;;;;;;6.15;3.63;;;;;;;;;;5072764;28;20040;-82
2023/07/01 14:30:54;;;;;;;6.05;3.65;;;;;;;;;;5072903;28;20048;-82
2023/07/01 14:33:51;;;;;;;9.52;3.70;;;;;;;;;;5079529;28;20489;-82
2023/07/01 14:36:38;;;;;;;6.43;3.90;;;;;;;;;;5073930;28;20045;-82
2023/07/01 14:39:53;;;;;;;7.93;4.43;;;;;;;;;;5076644;28;20469;-82
2023/07/01 14:42:40;;;;;;;7.85;3.97;;;;;;;;;;5076874;28;20406;-81
2023/07/01 14:45:27;;;;;;;6.30;4.15;;;;;;;;;;5076360;28;20522;-82
2023/07/01 14:48:12;;;;;;;6.78;3.40;;;;;;;;;;5076470;28;20414;-82
2023/07/01 14:50:58;;;;;;;5.95;3.53;;;;;;;;;;5076012;28;20044;-82
2023/07/01 14:53:46;;;;;;;5.60;3.53;;;;;;;;;;5076561;28;20046;-82
2023/07/01 14:56:31;;;;;;;4.78;3.40;;;;;;;;;;5076367;28;20402;-81
2023/07/01 14:59:17;;;;;;;7.78;3.25;;;;;;;;;;5082911;28;20044;-82
2023/07/01 15:02:02;;;;;;;5.95;3.35;;;;;;;;;;5076121;28;20049;-81
2023/07/01 15:04:48;;;;;;;4.68;2.92;;;;;;;;;;5076064;28;20053;-81
2023/07/01 15:07:33;;;;;;;7.32;2.88;;;;;;;;;;5076385;28;20052;-81
2023/07/01 15:10:19;;;;;;;5.50;2.90;;;;;;;;;;5074914;28;20390;-83
2023/07/01 15:13:04;;;;;;;5.22;3.00;;;;;;;;;;5075921;28;20040;-82
2023/07/01 15:15:53;;;;;;;8.27;3.00;;;;;;;;;;5075987;28;20044;-82
2023/07/01 15:18:39;;;;;;;7.80;3.30;;;;;;;;;;5075887;28;20041;-82
2023/07/01 15:21:24;;;;;;;7.70;3.50;;;;;;;;;;5067354;28;20052;-82
2023/07/01 15:24:10;;;;;;;7.13;3.25;;;;;;;;;;5075907;28;20416;-82
2023/07/01 15:26:56;;;;;;;5.30;3.20;;;;;;;;;;5076178;28;20040;-82
2023/07/01 15:29:41;;;;;;;6.88;3.30;;;;;;;;;;5076334;28;20044;-82
2023/07/01 15:32:27;;;;;;;6.35;3.17;;;;;;;;;;5075493;28;20048;-82
2023/07/01 15:35:13;;;;;;;7.35;3.30;;;;;;;;;;5077420;28;20053;-82
2023/07/01 15:37:58;;;;;;;7.68;3.63;;;;;;;;;;5075613;28;20048;-82
2023/07/01 15:40:48;;;;;;;7.22;3.28;;;;;;;;;;5084997;28;20049;-82
2023/07/01 15:43:34;;;;;;;8.13;3.92;;;;;;;;;;5061474;28;20044;-80
2023/07/01 15:46:42;;;;;;;6.78;3.38;;;;;;;;;;5081155;28;20386;-82
2023/07/01 15:49:29;;;;;;;10.73;3.28;;;;;;;;;;5061772;28;20048;-78
2023/07/01 15:52:26;;;;;;;5.13;2.80;;;;;;;;;;5062136;28;20053;-82
2023/07/01 15:55:12;;;;;;;6.45;3.25;;;;;;;;;;5061493;28;20049;-83
2023/07/01 16:20:00;;;;;;;7.20;3.17;;;;;;;;;;5067515;28;20053;-84
2023/07/01 16:22:45;;;;;;;5.10;3.30;;;;;;;;;;5041586;28;20041;-85
2023/07/01 16:25:33;;;;;;;4.70;2.97;;;;;;;;;;5049988;28;20044;-85
2023/07/01 16:28:45;;;;;;;4.95;3.28;;;;;;;;;;5049157;28;20053;-86
2023/07/01 16:31:31;;;;;;;5.45;3.35;;;;;;;;;;5056323;28;20037;-85
2023/07/01 16:34:21;;;;;;;4.97;3.20;;;;;;;;;;5041190;28;20053;-84
2023/07/01 16:37:06;;;;;;;5.03;3.10;;;;;;;;;;5057570;28;20049;-85
2023/07/01 16:39:54;;;;;;;5.20;3.38;;;;;;;;;;5040754;28;20049;-86
2023/07/01 16:42:45;;;;;;;7.68;3.13;;;;;;;;;;5049679;28;20044;-87
2023/07/01 16:45:39;;;;;;;5.70;3.00;;;;;;;;;;5035591;28;20048;-84
2023/07/01 16:48:43;;;;;;;6.28;3.08;;;;;;;;;;5040876;28;20401;-84
2023/07/01 16:51:30;;;;;;;5.00;3.15;;;;;;;;;;5053124;28;20402;-86
2023/07/01 16:54:35;;;;;;;12.13;4.85;;;;;;;;;;5054137;28;20036;-81
2023/07/01 16:57:57;;;;;;;5.43;3.60;;;;;;;;;;5054219;28;20049;-88
2023/07/01 17:00:47;;;;;;;5.80;3.28;;;;;;;;;;5025824;28;20041;-84